sensor_id;sensor_type;location;lat;lon;timestamp;pressure;altitude;pressure_sealevel;temperature;humidity
66021;BME280;52789;59.980;30.346;2023-05-12T00:01:39;102356.72;;;9.78;62.59
66021;BME280;52789;59.980;30.346;2023-05-12T00:04:05;102360.09;;;9.80;63.77
66021;BME280;52789;59.980;30.346;2023-05-12T00:06:31;102358.53;;;9.78;66.27
66021;BME280;52789;59.980;30.346;2023-05-12T00:08:56;102361.66;;;9.72;66.29
66021;BME280;52789;59.980;30.346;2023-05-12T00:11:21;102356.47;;;9.70;64.82
66021;BME280;52789;59.980;30.346;2023-05-12T00:13:47;102353.81;;;9.70;64.96
66021;BME280;52789;59.980;30.346;2023-05-12T00:16:12;102361.06;;;9.68;66.08
66021;BME280;52789;59.980;30.346;2023-05-12T00:18:39;102356.69;;;9.67;64.95
66021;BME280;52789;59.980;30.346;2023-05-12T00:21:05;102355.97;;;9.65;66.35
66021;BME280;52789;59.980;30.346;2023-05-12T00:23:32;102355.25;;;9.63;66.43
66021;BME280;52789;59.980;30.346;2023-05-12T00:25:58;102349.31;;;9.59;65.83
66021;BME280;52789;59.980;30.346;2023-05-12T00:28:23;102355.84;;;9.55;67.92
66021;BME280;52789;59.980;30.346;2023-05-12T00:30:49;102353.28;;;9.54;67.10
66021;BME280;52789;59.980;30.346;2023-05-12T00:33:14;102352.78;;;9.49;67.42
66021;BME280;52789;59.980;30.346;2023-05-12T00:35:41;102358.44;;;9.44;67.61
66021;BME280;52789;59.980;30.346;2023-05-12T00:38:06;102360.63;;;9.39;68.21
66021;BME280;52789;59.980;30.346;2023-05-12T00:40:32;102353.09;;;9.33;68.40
66021;BME280;52789;59.980;30.346;2023-05-12T00:42:57;102354.31;;;9.29;69.16
66021;BME280;52789;59.980;30.346;2023-05-12T00:45:22;102359.09;;;9.24;70.11
66021;BME280;52789;59.980;30.346;2023-05-12T00:47:48;102361.75;;;9.24;74.76
66021;BME280;52789;59.980;30.346;2023-05-12T00:50:15;102356.56;;;9.22;74.04
66021;BME280;52789;59.980;30.346;2023-05-12T00:52:41;102363.56;;;9.23;73.74
66021;BME280;52789;59.980;30.346;2023-05-12T00:55:06;102360.91;;;9.23;76.97
66021;BME280;52789;59.980;30.346;2023-05-12T00:57:32;102365.19;;;9.26;75.83
66021;BME280;52789;59.980;30.346;2023-05-12T00:59:57;102362.53;;;9.26;73.93
66021;BME280;52789;59.980;30.346;2023-05-12T01:02:23;102365.19;;;9.26;74.25
66021;BME280;52789;59.980;30.346;2023-05-12T01:04:48;102359.75;;;9.27;73.07
66021;BME280;52789;59.980;30.346;2023-05-12T01:07:16;102357.19;;;9.26;75.77
66021;BME280;52789;59.980;30.346;2023-05-12T01:09:42;102353.56;;;9.27;75.88
66021;BME280;52789;59.980;30.346;2023-05-12T01:12:07;102359.84;;;9.26;75.89
66021;BME280;52789;59.980;30.346;2023-05-12T01:14:33;102358.91;;;9.27;79.32
66021;BME280;52789;59.980;30.346;2023-05-12T01:16:59;102363.38;;;9.26;75.61
66021;BME280;52789;59.980;30.346;2023-05-12T01:21:54;102369.72;;;9.24;78.72
66021;BME280;52789;59.980;30.346;2023-05-12T01:24:19;102364.66;;;9.21;77.27
66021;BME280;52789;59.980;30.346;2023-05-12T01:26:48;102363.78;;;9.20;77.59
66021;BME280;52789;59.980;30.346;2023-05-12T01:29:13;102374.44;;;9.20;77.10
66021;BME280;52789;59.980;30.346;2023-05-12T01:31:39;102374.31;;;9.22;77.28
66021;BME280;52789;59.980;30.346;2023-05-12T01:34:04;102369.97;;;9.21;78.75
66021;BME280;52789;59.980;30.346;2023-05-12T01:36:30;102372.38;;;9.24;74.54
66021;BME280;52789;59.980;30.346;2023-05-12T01:38:56;102369.53;;;9.27;75.42
66021;BME280;52789;59.980;30.346;2023-05-12T01:41:21;102366.75;;;9.28;75.16
66021;BME280;52789;59.980;30.346;2023-05-12T01:43:47;102360.34;;;9.31;75.82
66021;BME280;52789;59.980;30.346;2023-05-12T01:46:12;102367.38;;;9.32;74.83
66021;BME280;52789;59.980;30.346;2023-05-12T01:48:37;102371.72;;;9.33;74.37
66021;BME280;52789;59.980;30.346;2023-05-12T01:51:05;102374.50;;;9.31;73.98
66021;BME280;52789;59.980;30.346;2023-05-12T01:53:30;102370.16;;;9.30;74.33
66021;BME280;52789;59.980;30.346;2023-05-12T01:55:56;102377.38;;;9.28;74.82
66021;BME280;52789;59.980;30.346;2023-05-12T01:58:21;102375.81;;;9.26;76.95
66021;BME280;52789;59.980;30.346;2023-05-12T02:00:46;102374.00;;;9.26;75.28
66021;BME280;52789;59.980;30.346;2023-05-12T02:03:12;102376.53;;;9.28;75.66
66021;BME280;52789;59.980;30.346;2023-05-12T02:05:37;102376.53;;;9.28;76.18
66021;BME280;52789;59.980;30.346;2023-05-12T02:08:02;102372.91;;;9.29;74.70
66021;BME280;52789;59.980;30.346;2023-05-12T02:10:28;102378.25;;;9.29;75.50
66021;BME280;52789;59.980;30.346;2023-05-12T02:12:54;102379.94;;;9.30;76.23
66021;BME280;52789;59.980;30.346;2023-05-12T02:15:19;102376.31;;;9.31;74.95
66021;BME280;52789;59.980;30.346;2023-05-12T02:17:45;102378.00;;;9.32;74.02
66021;BME280;52789;59.980;30.346;2023-05-12T02:20:10;102373.53;;;9.32;74.88
66021;BME280;52789;59.980;30.346;2023-05-12T02:22:36;102382.34;;;9.33;77.93
66021;BME280;52789;59.980;30.346;2023-05-12T02:25:01;102376.06;;;9.34;77.46
66021;BME280;52789;59.980;30.346;2023-05-12T02:27:27;102376.94;;;9.35;77.42
66021;BME280;52789;59.980;30.346;2023-05-12T02:29:52;102378.63;;;9.36;78.52
66021;BME280;52789;59.980;30.346;2023-05-12T02:32:18;102375.84;;;9.37;77.86
66021;BME280;52789;59.980;30.346;2023-05-12T02:34:43;102377.53;;;9.38;77.96
66021;BME280;52789;59.980;30.346;2023-05-12T02:37:09;102375.38;;;9.43;78.35
66021;BME280;52789;59.980;30.346;2023-05-12T02:39:35;102382.38;;;9.44;80.46
66021;BME280;52789;59.980;30.346;2023-05-12T02:42:00;102375.97;;;9.47;80.44
66021;BME280;52789;59.980;30.346;2023-05-12T02:44:25;102387.47;;;9.47;82.21
66021;BME280;52789;59.980;30.346;2023-05-12T02:46:51;102380.94;;;9.51;83.53
66021;BME280;52789;59.980;30.346;2023-05-12T02:49:17;102378.28;;;9.51;83.33
66021;BME280;52789;59.980;30.346;2023-05-12T02:51:42;102384.34;;;9.53;84.28
66021;BME280;52789;59.980;30.346;2023-05-12T02:54:07;102379.53;;;9.58;81.08
66021;BME280;52789;59.980;30.346;2023-05-12T02:56:33;102378.22;;;9.64;81.46
66021;BME280;52789;59.980;30.346;2023-05-12T02:58:58;102374.97;;;9.72;81.19
66021;BME280;52789;59.980;30.346;2023-05-12T03:01:23;102378.84;;;9.79;81.03
66021;BME280;52789;59.980;30.346;2023-05-12T03:03:49;102378.41;;;9.85;81.43
66021;BME280;52789;59.980;30.346;2023-05-12T03:06:14;102382.06;;;10.17;82.00
66021;BME280;52789;59.980;30.346;2023-05-12T03:08:39;102387.09;;;11.52;77.75
66021;BME280;52789;59.980;30.346;2023-05-12T03:11:05;102374.56;;;13.53;67.66
66021;BME280;52789;59.980;30.346;2023-05-12T03:13:30;102376.72;;;15.15;60.21
66021;BME280;52789;59.980;30.346;2023-05-12T03:15:55;102377.53;;;16.21;55.52
66021;BME280;52789;59.980;30.346;2023-05-12T03:18:25;102378.31;;;16.98;51.88
66021;BME280;52789;59.980;30.346;2023-05-12T03:20:50;102376.88;;;17.69;50.08
66021;BME280;52789;59.980;30.346;2023-05-12T03:23:15;102373.97;;;18.42;49.01
66021;BME280;52789;59.980;30.346;2023-05-12T03:25:41;102371.13;;;19.05;47.39
66021;BME280;52789;59.980;30.346;2023-05-12T03:28:06;102378.09;;;19.45;45.09
66021;BME280;52789;59.980;30.346;2023-05-12T03:30:31;102381.06;;;19.50;44.50
66021;BME280;52789;59.980;30.346;2023-05-12T03:33:00;102379.72;;;18.78;44.82
66021;BME280;52789;59.980;30.346;2023-05-12T03:35:25;102380.59;;;18.31;45.91
66021;BME280;52789;59.980;30.346;2023-05-12T03:37:51;102378.19;;;17.97;47.14
66021;BME280;52789;59.980;30.346;2023-05-12T03:40:16;102384.59;;;17.23;48.79
66021;BME280;52789;59.980;30.346;2023-05-12T03:42:43;102393.81;;;16.20;51.07
66021;BME280;52789;59.980;30.346;2023-05-12T03:45:09;102385.59;;;15.16;55.93
66021;BME280;52789;59.980;30.346;2023-05-12T03:47:35;102389.50;;;14.59;57.51
66021;BME280;52789;59.980;30.346;2023-05-12T03:50:00;102386.84;;;14.12;60.07
66021;BME280;52789;59.980;30.346;2023-05-12T03:52:26;102384.19;;;14.39;60.27
66021;BME280;52789;59.980;30.346;2023-05-12T03:54:51;102391.09;;;14.97;57.21
66021;BME280;52789;59.980;30.346;2023-05-12T03:57:16;102385.28;;;15.19;56.62
66021;BME280;52789;59.980;30.346;2023-05-12T03:59:42;102391.88;;;15.42;55.11
66021;BME280;52789;59.980;30.346;2023-05-12T04:02:07;102387.75;;;15.12;55.33
66021;BME280;52789;59.980;30.346;2023-05-12T04:04:36;102384.53;;;14.64;57.47
66021;BME280;52789;59.980;30.346;2023-05-12T04:07:01;102389.81;;;14.55;59.39
66021;BME280;52789;59.980;30.346;2023-05-12T04:09:26;102398.38;;;15.58;56.89
66021;BME280;52789;59.980;30.346;2023-05-12T04:11:52;102386.94;;;17.10;51.97
66021;BME280;52789;59.980;30.346;2023-05-12T04:14:17;102388.13;;;18.44;48.86
66021;BME280;52789;59.980;30.346;2023-05-12T04:16:43;102397.66;;;19.47;45.54
66021;BME280;52789;59.980;30.346;2023-05-12T04:19:08;102390.16;;;19.95;43.01
66021;BME280;52789;59.980;30.346;2023-05-12T04:21:34;102394.34;;;18.92;43.85
66021;BME280;52789;59.980;30.346;2023-05-12T04:23:59;102389.97;;;17.31;47.70
66021;BME280;52789;59.980;30.346;2023-05-12T04:29:46;102404.34;;;16.47;51.75
66021;BME280;52789;59.980;30.346;2023-05-12T04:32:12;102399.56;;;17.90;48.10
66021;BME280;52789;59.980;30.346;2023-05-12T04:34:37;102397.63;;;19.02;45.21
66021;BME280;52789;59.980;30.346;2023-05-12T04:37:02;102398.19;;;19.66;43.22
66021;BME280;52789;59.980;30.346;2023-05-12T04:39:28;102398.13;;;19.28;43.58
66021;BME280;52789;59.980;30.346;2023-05-12T04:41:53;102408.06;;;18.82;44.28
66021;BME280;52789;59.980;30.346;2023-05-12T04:44:18;102404.22;;;18.29;45.36
66021;BME280;52789;59.980;30.346;2023-05-12T04:46:44;102406.22;;;18.74;44.70
66021;BME280;52789;59.980;30.346;2023-05-12T04:49:09;102410.06;;;19.34;43.99
66021;BME280;52789;59.980;30.346;2023-05-12T04:51:35;102412.63;;;19.96;42.51
66021;BME280;52789;59.980;30.346;2023-05-12T04:54:07;102417.22;;;20.39;41.67
66021;BME280;52789;59.980;30.346;2023-05-12T04:56:33;102422.66;;;20.54;40.69
66021;BME280;52789;59.980;30.346;2023-05-12T04:58:59;102421.13;;;20.52;41.06
66021;BME280;52789;59.980;30.346;2023-05-12T05:01:24;102422.88;;;20.15;41.45
66021;BME280;52789;59.980;30.346;2023-05-12T05:03:49;102422.16;;;19.23;43.10
66021;BME280;52789;59.980;30.346;2023-05-12T05:06:15;102410.19;;;18.64;44.72
66021;BME280;52789;59.980;30.346;2023-05-12T05:08:40;102420.84;;;17.69;46.76
66021;BME280;52789;59.980;30.346;2023-05-12T05:11:06;102415.53;;;16.26;50.86
66021;BME280;52789;59.980;30.346;2023-05-12T05:13:31;102423.78;;;15.28;54.50
66021;BME280;52789;59.980;30.346;2023-05-12T05:15:56;102418.41;;;14.65;56.42
66021;BME280;52789;59.980;30.346;2023-05-12T05:18:22;102429.56;;;14.23;58.56
66021;BME280;52789;59.980;30.346;2023-05-12T05:20:47;102433.97;;;14.05;59.50
66021;BME280;52789;59.980;30.346;2023-05-12T05:23:12;102430.47;;;13.94;59.08
66021;BME280;52789;59.980;30.346;2023-05-12T05:25:38;102428.78;;;13.84;59.58
66021;BME280;52789;59.980;30.346;2023-05-12T05:28:03;102428.41;;;13.69;60.75
66021;BME280;52789;59.980;30.346;2023-05-12T05:30:29;102425.00;;;13.67;60.39
66021;BME280;52789;59.980;30.346;2023-05-12T05:32:54;102432.34;;;13.65;61.26
66021;BME280;52789;59.980;30.346;2023-05-12T05:35:19;102425.44;;;13.62;61.80
66021;BME280;52789;59.980;30.346;2023-05-12T05:37:45;102429.25;;;13.60;61.59
66021;BME280;52789;59.980;30.346;2023-05-12T05:40:11;102430.63;;;13.54;61.53
66021;BME280;52789;59.980;30.346;2023-05-12T05:42:36;102430.94;;;13.51;61.92
66021;BME280;52789;59.980;30.346;2023-05-12T05:45:02;102426.28;;;13.53;61.68
66021;BME280;52789;59.980;30.346;2023-05-12T05:47:28;102433.19;;;13.56;61.77
66021;BME280;52789;59.980;30.346;2023-05-12T05:49:55;102431.50;;;13.55;62.47
66021;BME280;52789;59.980;30.346;2023-05-12T05:52:20;102431.50;;;13.55;62.73
66021;BME280;52789;59.980;30.346;2023-05-12T05:54:46;102432.47;;;13.54;62.89
66021;BME280;52789;59.980;30.346;2023-05-12T05:57:12;102434.47;;;13.61;63.90
66021;BME280;52789;59.980;30.346;2023-05-12T05:59:37;102436.44;;;13.69;62.48
66021;BME280;52789;59.980;30.346;2023-05-12T06:02:02;102439.81;;;13.71;62.67
66021;BME280;52789;59.980;30.346;2023-05-12T06:04:28;102432.34;;;13.65;62.25
66021;BME280;52789;59.980;30.346;2023-05-12T06:06:53;102427.00;;;13.65;63.22
66021;BME280;52789;59.980;30.346;2023-05-12T06:09:19;102434.59;;;13.70;63.39
66021;BME280;52789;59.980;30.346;2023-05-12T06:11:44;102427.53;;;13.78;62.24
66021;BME280;52789;59.980;30.346;2023-05-12T06:14:09;102431.31;;;13.85;61.80
66021;BME280;52789;59.980;30.346;2023-05-12T06:16:35;102431.16;;;13.87;61.89
66021;BME280;52789;59.980;30.346;2023-05-12T06:19:01;102427.78;;;13.94;62.07
66021;BME280;52789;59.980;30.346;2023-05-12T06:21:26;102428.91;;;14.02;61.39
66021;BME280;52789;59.980;30.346;2023-05-12T06:23:51;102432.28;;;14.04;60.70
66021;BME280;52789;59.980;30.346;2023-05-12T06:26:18;102432.28;;;14.04;61.22
66021;BME280;52789;59.980;30.346;2023-05-12T06:28:44;102434.38;;;14.10;60.73
66021;BME280;52789;59.980;30.346;2023-05-12T06:31:09;102427.47;;;14.17;60.36
66021;BME280;52789;59.980;30.346;2023-05-12T06:33:34;102426.88;;;14.23;59.59
66021;BME280;52789;59.980;30.346;2023-05-12T06:36:00;102428.41;;;14.25;59.92
66021;BME280;52789;59.980;30.346;2023-05-12T06:38:25;102435.91;;;14.22;59.85
66021;BME280;52789;59.980;30.346;2023-05-12T06:40:50;102431.41;;;14.22;59.98
66021;BME280;52789;59.980;30.346;2023-05-12T06:43:16;102433.94;;;14.24;61.14
66021;BME280;52789;59.980;30.346;2023-05-12T06:45:42;102438.69;;;14.30;60.47
66021;BME280;52789;59.980;30.346;2023-05-12T06:48:08;102438.53;;;14.32;59.53
66021;BME280;52789;59.980;30.346;2023-05-12T06:50:34;102436.84;;;14.31;60.07
66021;BME280;52789;59.980;30.346;2023-05-12T06:52:59;102438.41;;;14.33;60.42
66021;BME280;52789;59.980;30.346;2023-05-12T06:55:25;102437.81;;;14.39;61.43
66021;BME280;52789;59.980;30.346;2023-05-12T06:57:50;102439.22;;;14.43;60.50
66021;BME280;52789;59.980;30.346;2023-05-12T07:00:20;102438.97;;;14.46;59.98
66021;BME280;52789;59.980;30.346;2023-05-12T07:02:45;102443.19;;;14.49;59.05
66021;BME280;52789;59.980;30.346;2023-05-12T07:05:10;102444.72;;;14.51;59.25
66021;BME280;52789;59.980;30.346;2023-05-12T07:07:37;102447.50;;;14.60;58.59
66021;BME280;52789;59.980;30.346;2023-05-12T07:10:02;102436.03;;;14.67;58.05
66021;BME280;52789;59.980;30.346;2023-05-12T07:12:28;102441.38;;;14.77;57.47
66021;BME280;52789;59.980;30.346;2023-05-12T07:14:54;102437.94;;;14.84;58.60
66021;BME280;52789;59.980;30.346;2023-05-12T07:17:19;102441.53;;;14.93;55.74
66021;BME280;52789;59.980;30.346;2023-05-12T07:19:45;102444.59;;;14.98;55.78
66021;BME280;52789;59.980;30.346;2023-05-12T07:22:10;102446.28;;;14.99;55.36
66021;BME280;52789;59.980;30.346;2023-05-12T07:24:36;102452.19;;;15.03;55.03
66021;BME280;52789;59.980;30.346;2023-05-12T07:27:02;102454.47;;;15.07;53.05
66021;BME280;52789;59.980;30.346;2023-05-12T07:29:30;102448.09;;;15.08;53.88
66021;BME280;52789;59.980;30.346;2023-05-12T07:31:56;102449.88;;;15.17;53.71
66021;BME280;52789;59.980;30.346;2023-05-12T07:34:21;102444.19;;;15.21;52.83
66021;BME280;52789;59.980;30.346;2023-05-12T07:36:46;102448.41;;;15.23;53.81
66021;BME280;52789;59.980;30.346;2023-05-12T07:39:12;102450.03;;;15.34;53.64
66021;BME280;52789;59.980;30.346;2023-05-12T07:41:39;102448.03;;;15.36;53.30
66021;BME280;52789;59.980;30.346;2023-05-12T07:44:04;102453.41;;;15.36;53.29
66021;BME280;52789;59.980;30.346;2023-05-12T07:46:30;102447.03;;;15.37;53.27
66021;BME280;52789;59.980;30.346;2023-05-12T07:48:55;102448.56;;;15.39;53.25
66021;BME280;52789;59.980;30.346;2023-05-12T07:51:21;102447.03;;;15.37;52.91
66021;BME280;52789;59.980;30.346;2023-05-12T07:53:46;102451.09;;;15.41;54.03
66021;BME280;52789;59.980;30.346;2023-05-12T07:56:12;102449.97;;;15.43;53.90
66021;BME280;52789;59.980;30.346;2023-05-12T07:58:37;102444.13;;;15.48;54.31
66021;BME280;52789;59.980;30.346;2023-05-12T08:01:02;102449.56;;;15.56;54.87
66021;BME280;52789;59.980;30.346;2023-05-12T08:03:30;102449.28;;;15.59;54.94
66021;BME280;52789;59.980;30.346;2023-05-12T08:05:56;102443.31;;;15.65;54.66
66021;BME280;52789;59.980;30.346;2023-05-12T08:08:21;102452.59;;;15.71;54.38
66021;BME280;52789;59.980;30.346;2023-05-12T08:10:46;102444.38;;;15.72;55.05
66021;BME280;52789;59.980;30.346;2023-05-12T08:13:12;102450.44;;;15.74;54.18
66021;BME280;52789;59.980;30.346;2023-05-12T08:15:37;102447.13;;;15.80;54.23
66021;BME280;52789;59.980;30.346;2023-05-12T08:18:02;102442.78;;;15.88;54.10
66021;BME280;52789;59.980;30.346;2023-05-12T08:20:28;102440.78;;;15.90;54.13
66021;BME280;52789;59.980;30.346;2023-05-12T08:22:53;102444.03;;;15.93;54.86
66021;BME280;52789;59.980;30.346;2023-05-12T08:25:19;102449.78;;;15.98;54.46
66021;BME280;52789;59.980;30.346;2023-05-12T08:27:45;102446.28;;;16.06;54.51
66021;BME280;52789;59.980;30.346;2023-05-12T08:30:10;102442.44;;;16.08;53.51
66021;BME280;52789;59.980;30.346;2023-05-12T08:32:36;102442.28;;;16.10;52.66
66021;BME280;52789;59.980;30.346;2023-05-12T08:35:01;102437.22;;;16.07;52.63
66021;BME280;52789;59.980;30.346;2023-05-12T08:37:28;102438.28;;;16.14;53.65
66021;BME280;52789;59.980;30.346;2023-05-12T08:39:54;102442.09;;;16.29;53.43
66021;BME280;52789;59.980;30.346;2023-05-12T08:44:52;102435.41;;;16.41;52.37
66021;BME280;52789;59.980;30.346;2023-05-12T08:47:17;102441.03;;;16.48;52.39
66021;BME280;52789;59.980;30.346;2023-05-12T08:49:46;102436.16;;;16.52;52.06
66021;BME280;52789;59.980;30.346;2023-05-12T08:52:13;102442.22;;;16.54;51.46
66021;BME280;52789;59.980;30.346;2023-05-12T08:54:42;102444.59;;;16.57;51.85
66021;BME280;52789;59.980;30.346;2023-05-12T08:57:08;102447.63;;;16.62;50.80
66021;BME280;52789;59.980;30.346;2023-05-12T08:59:34;102439.38;;;16.63;50.67
66021;BME280;52789;59.980;30.346;2023-05-12T09:02:00;102433.56;;;16.68;50.53
66021;BME280;52789;59.980;30.346;2023-05-12T09:04:28;102430.69;;;16.69;47.56
66021;BME280;52789;59.980;30.346;2023-05-12T09:06:53;102436.59;;;16.73;47.74
66021;BME280;52789;59.980;30.346;2023-05-12T09:09:19;102429.59;;;16.80;45.82
66021;BME280;52789;59.980;30.346;2023-05-12T09:11:44;102439.72;;;16.94;45.28
66021;BME280;52789;59.980;30.346;2023-05-12T09:14:14;102437.69;;;17.04;43.98
66021;BME280;52789;59.980;30.346;2023-05-12T09:16:43;102431.69;;;17.11;43.46
66021;BME280;52789;59.980;30.346;2023-05-12T09:19:08;102429.16;;;17.17;42.73
66021;BME280;52789;59.980;30.346;2023-05-12T09:21:33;102430.50;;;17.13;41.16
66021;BME280;52789;59.980;30.346;2023-05-12T09:24:05;102427.81;;;17.13;41.71
66021;BME280;52789;59.980;30.346;2023-05-12T09:26:47;102421.94;;;17.18;41.66
66021;BME280;52789;59.980;30.346;2023-05-12T09:29:13;102440.63;;;17.19;39.50
66021;BME280;52789;59.980;30.346;2023-05-12T09:31:39;102433.22;;;17.21;40.23
66021;BME280;52789;59.980;30.346;2023-05-12T09:34:12;102431.38;;;17.22;39.46
66021;BME280;52789;59.980;30.346;2023-05-12T09:36:38;102431.53;;;17.20;38.60
66021;BME280;52789;59.980;30.346;2023-05-12T09:39:04;102427.66;;;17.15;38.53
66021;BME280;52789;59.980;30.346;2023-05-12T09:41:34;102425.13;;;17.13;38.54
66021;BME280;52789;59.980;30.346;2023-05-12T09:43:59;102424.28;;;17.21;38.37
66021;BME280;52789;59.980;30.346;2023-05-12T09:46:25;102428.84;;;17.28;38.27
66021;BME280;52789;59.980;30.346;2023-05-12T09:48:50;102424.28;;;17.29;37.67
66021;BME280;52789;59.980;30.346;2023-05-12T09:51:19;102417.91;;;17.30;37.72
66021;BME280;52789;59.980;30.346;2023-05-12T09:53:44;102425.63;;;17.25;37.29
66021;BME280;52789;59.980;30.346;2023-05-12T09:56:11;102420.75;;;17.20;37.44
66021;BME280;52789;59.980;30.346;2023-05-12T09:58:37;102418.56;;;17.16;36.67
66021;BME280;52789;59.980;30.346;2023-05-12T10:01:05;102411.50;;;17.15;36.40
66021;BME280;52789;59.980;30.346;2023-05-12T10:03:31;102419.41;;;17.16;36.23
66021;BME280;52789;59.980;30.346;2023-05-12T10:05:59;102419.91;;;17.20;37.04
66021;BME280;52789;59.980;30.346;2023-05-12T10:08:28;102423.78;;;17.25;36.50
66021;BME280;52789;59.980;30.346;2023-05-12T10:11:04;102413.53;;;17.29;36.59
66021;BME280;52789;59.980;30.346;2023-05-12T10:13:31;102420.59;;;17.30;36.20
66021;BME280;52789;59.980;30.346;2023-05-12T10:15:57;102422.09;;;17.24;36.63
66021;BME280;52789;59.980;30.346;2023-05-12T10:18:23;102432.69;;;17.18;36.95
66021;BME280;52789;59.980;30.346;2023-05-12T10:20:48;102417.72;;;17.15;36.86
66021;BME280;52789;59.980;30.346;2023-05-12T10:23:15;102424.97;;;17.15;36.39
66021;BME280;52789;59.980;30.346;2023-05-12T10:25:42;102427.31;;;17.18;36.45
66021;BME280;52789;59.980;30.346;2023-05-12T10:28:08;102432.19;;;17.14;35.83
66021;BME280;52789;59.980;30.346;2023-05-12T10:30:34;102422.28;;;17.15;36.19
66021;BME280;52789;59.980;30.346;2023-05-12T10:33:00;102424.28;;;17.21;35.52
66021;BME280;52789;59.980;30.346;2023-05-12T10:35:36;102424.63;;;17.18;35.34
66021;BME280;52789;59.980;30.346;2023-05-12T10:38:08;102421.44;;;17.14;36.09
66021;BME280;52789;59.980;30.346;2023-05-12T10:40:34;102415.19;;;17.14;35.58
66021;BME280;52789;59.980;30.346;2023-05-12T10:43:00;102418.91;;;17.13;35.35
66021;BME280;52789;59.980;30.346;2023-05-12T10:45:25;102410.16;;;17.11;35.32
66021;BME280;52789;59.980;30.346;2023-05-12T10:47:51;102419.22;;;17.10;35.52
66021;BME280;52789;59.980;30.346;2023-05-12T10:50:26;102414.34;;;17.13;35.56
66021;BME280;52789;59.980;30.346;2023-05-12T10:52:54;102417.72;;;17.15;35.15
66021;BME280;52789;59.980;30.346;2023-05-12T10:55:33;102416.88;;;17.15;35.55
66021;BME280;52789;59.980;30.346;2023-05-12T10:58:06;102420.59;;;17.14;35.02
66021;BME280;52789;59.980;30.346;2023-05-12T11:00:41;102423.63;;;17.19;34.20
66021;BME280;52789;59.980;30.346;2023-05-12T11:03:10;102418.06;;;17.12;34.48
66021;BME280;52789;59.980;30.346;2023-05-12T11:05:35;102422.94;;;17.09;35.01
66021;BME280;52789;59.980;30.346;2023-05-12T11:08:01;102422.78;;;17.18;34.95
66021;BME280;52789;59.980;30.346;2023-05-12T11:10:27;102418.72;;;17.14;34.41
66021;BME280;52789;59.980;30.346;2023-05-12T11:12:52;102423.13;;;17.15;34.76
66021;BME280;52789;59.980;30.346;2023-05-12T11:15:18;102423.63;;;17.19;35.18
66021;BME280;52789;59.980;30.346;2023-05-12T11:17:44;102418.75;;;17.22;34.68
66021;BME280;52789;59.980;30.346;2023-05-12T11:20:20;102410.00;;;17.20;34.00
66021;BME280;52789;59.980;30.346;2023-05-12T11:22:45;102425.47;;;17.26;34.66
66021;BME280;52789;59.980;30.346;2023-05-12T11:25:11;102408.47;;;17.26;33.93
66021;BME280;52789;59.980;30.346;2023-05-12T11:27:36;102421.44;;;17.30;34.89
66021;BME280;52789;59.980;30.346;2023-05-12T11:30:08;102417.41;;;17.34;34.34
66021;BME280;52789;59.980;30.346;2023-05-12T11:32:35;102419.94;;;17.36;34.71
66021;BME280;52789;59.980;30.346;2023-05-12T11:35:10;102417.94;;;17.38;34.00
66021;BME280;52789;59.980;30.346;2023-05-12T11:37:39;102413.88;;;17.42;34.37
66021;BME280;52789;59.980;30.346;2023-05-12T11:40:12;102410.03;;;17.37;33.99
66021;BME280;52789;59.980;30.346;2023-05-12T11:42:40;102402.63;;;17.39;34.66
66021;BME280;52789;59.980;30.346;2023-05-12T11:47:47;102406.66;;;17.51;33.95
66021;BME280;52789;59.980;30.346;2023-05-12T11:50:18;102408.16;;;17.53;33.82
66021;BME280;52789;59.980;30.346;2023-05-12T11:52:44;102407.50;;;17.51;33.83
66021;BME280;52789;59.980;30.346;2023-05-12T11:55:09;102400.41;;;17.50;34.03
66021;BME280;52789;59.980;30.346;2023-05-12T11:57:35;102398.06;;;17.47;34.46
66021;BME280;52789;59.980;30.346;2023-05-12T12:00:04;102399.91;;;17.47;34.25
66021;BME280;52789;59.980;30.346;2023-05-12T12:02:32;102392.69;;;17.47;34.51
66021;BME280;52789;59.980;30.346;2023-05-12T12:04:57;102392.34;;;17.50;34.74
66021;BME280;52789;59.980;30.346;2023-05-12T12:07:29;102396.22;;;17.48;34.17
66021;BME280;52789;59.980;30.346;2023-05-12T12:09:55;102402.94;;;17.44;35.00
66021;BME280;52789;59.980;30.346;2023-05-12T12:12:20;102387.63;;;17.36;34.68
66021;BME280;52789;59.980;30.346;2023-05-12T12:14:46;102392.34;;;17.42;34.89
66021;BME280;52789;59.980;30.346;2023-05-12T12:17:11;102387.47;;;17.46;35.08
66021;BME280;52789;59.980;30.346;2023-05-12T12:19:36;102389.66;;;17.50;35.40
66021;BME280;52789;59.980;30.346;2023-05-12T12:22:02;102383.56;;;17.56;34.98
66021;BME280;52789;59.980;30.346;2023-05-12T12:24:27;102391.97;;;17.61;34.62
66021;BME280;52789;59.980;30.346;2023-05-12T12:26:52;102391.38;;;17.68;34.94
66021;BME280;52789;59.980;30.346;2023-05-12T12:29:18;102393.88;;;17.77;34.88
66021;BME280;52789;59.980;30.346;2023-05-12T12:31:43;102388.81;;;17.74;34.22
66021;BME280;52789;59.980;30.346;2023-05-12T12:34:09;102387.97;;;17.74;33.67
66021;BME280;52789;59.980;30.346;2023-05-12T12:36:34;102394.03;;;17.76;33.47
66021;BME280;52789;59.980;30.346;2023-05-12T12:39:00;102387.66;;;17.69;33.39
66021;BME280;52789;59.980;30.346;2023-05-12T12:41:25;102394.19;;;17.66;33.75
66021;BME280;52789;59.980;30.346;2023-05-12T12:43:51;102396.03;;;17.57;32.91
66021;BME280;52789;59.980;30.346;2023-05-12T12:46:17;102393.19;;;17.51;33.06
66021;BME280;52789;59.980;30.346;2023-05-12T12:48:42;102385.59;;;17.54;33.24